This is the latest recevied weather packets stored in our database for station/object VE2CSM-13. If no packets are shown the sender has not sent any weather packets the latest 10 day(s).
| Time | Temp. | Humidity | Pressure | Rain* | Wind** | Luminosity | Snow |
|---|---|---|---|---|---|---|---|
| 1777174714 | 3.89° C | 70% | 1029.8 hPa | 0 mm | - | - | - |
| 1777172914 | 4.44° C | 71% | 1029.8 hPa | 0 mm | - | - | - |
| 1777171114 | 5.56° C | 65% | 1029.5 hPa | 0 mm | - | - | - |
| 1777169315 | 7.22° C | 59% | 1029.6 hPa | 0 mm | - | - | - |
| 1777165714 | 9.44° C | 52% | 1028.9 hPa | 0 mm | - | - | - |
| 1777162114 | 11.11° C | 45% | 1028.2 hPa | 0 mm | - | - | - |
| 1777158515 | 12.78° C | 42% | 1027.6 hPa | 0 mm | - | - | - |
| 1777157812 | 12.78° C | 42% | 1027.4 hPa | 0 mm | - | - | - |
| 1777154915 | 13.33° C | 41% | 1027.4 hPa | 0 mm | - | - | - |
| 1777153114 | 13.33° C | 41% | 1027.2 hPa | 0 mm | - | - | - |
| 1777151315 | 13.33° C | 42% | 1027.1 hPa | 0 mm | - | - | - |
| 1777149514 | 13.89° C | 41% | 1027.3 hPa | 0 mm | - | - | - |
| 1777147715 | 13.89° C | 41% | 1027.5 hPa | 0 mm | - | - | - |
| 1777144114 | 12.22° C | 45% | 1027.8 hPa | 0 mm | - | - | - |
| 1777140514 | 11.11° C | 46% | 1028.4 hPa | 0 mm | - | - | - |
| 1777138714 | 13.33° C | 41% | 1028.6 hPa | 0 mm | - | - | - |
| 1777136914 | 12.22° C | 42% | 1028.9 hPa | 0 mm | - | - | - |
| 1777133314 | 11.67° C | 46% | 1029.6 hPa | 0 mm | - | - | - |
| 1777129715 | 9.44° C | 54% | 1030.4 hPa | 0 mm | - | - | - |
| 1777126115 | 8.33° C | 62% | 1030.8 hPa | 0 mm | - | - | - |
| 1777122514 | 5.56° C | 69% | 1031 hPa | 0 mm | - | - | - |
| 1777118914 | 1.11° C | 78% | 1031.1 hPa | 0 mm | - | - | - |
| 1777117114 | 2.78° C | 74% | 1031 hPa | 0 mm | - | - | - |
| 1777115316 | 1.11° C | 78% | 1031 hPa | 0 mm | - | - | - |
| 1777111718 | -1.67° C | 88% | 1030.5 hPa | 0 mm | - | - | - |
* Rain latest hour (hover to see other rain measurements)
** Current wind speed in m/s (hover to see current wind gust speed)